Pagina principale
METAR-TAF:

METAR-TAF

Aeroporti :

Perugia, Italia

Aeroporto di Perugia

latitudine: 43-05N, longitudine: 012-30E, altezza: 208 m

Osservazione

Il bollettino è stato emesso 48 minuti fa, alle 19:50 UTC
Vento 6 kt da nord
Temperature 17°C
Umidità 94%
Pressione 1006 hPa
Visibilità 10 km o più
Nubi sparse ad un'altezza di 4000 ft

METAR: LIRZ 251950Z 01006KT 9999 SCT040 17/16 Q1006

Ora: 22:38 (20:38 UTC)

Previsione

Il bollettino è stato emesso 3 ore e 38 minuti fa, alle 17:00 UTC
Previsione valida dal 25 alle 18 UTC al 26 alle 18 UTC
Vento 6 kt da direzioni variabili
Visibilità 10 km o più
Nubi sparse ad un'altezza di 4000 ft
Temporaneamente
dal 26 alle 12 UTC al 26 alle 15 UTC
temporale, pioggia

TAF: LIRZ 251700Z 2518/2618 VRB06KT 9999 SCT040 TEMPO 2612/2615 TSRA

Osservazioni e previsioni meteorologiche di più di 4000 aeroporti (messaggi METAR e TAF).

Le stazioni disponibili sono rappresentate dai dischi gialli e rossi sulla carta.

Puntare il mouse per vedere il nome della stazione.

Clicca sopra per visualizzare le osservazioni e previsioni meteorologiche.

Per cambiare la mappa : fare clic sui pulsanti verdi con una croce nera per ingrandire, il pulsante verde con un trattino per diminuire, o sulla freccia verde per le mappe adiacenti.


METAR-TAF: